createdAt,value
2018-01-19T00:00:03.678Z,5.20
2018-01-19T00:02:32.156Z,5.20
2018-01-19T00:05:01.189Z,5.30
2018-01-19T00:07:30.246Z,5.30
2018-01-19T00:09:58.532Z,5.30
2018-01-19T00:12:27.601Z,5.50
2018-01-19T00:14:55.932Z,5.30
2018-01-19T00:17:24.179Z,5.40
2018-01-19T00:19:53.245Z,5.40
2018-01-19T00:22:21.542Z,5.40
2018-01-19T00:24:49.879Z,5.40
2018-01-19T00:27:18.202Z,5.40
2018-01-19T00:29:46.484Z,5.40
2018-01-19T00:32:14.820Z,5.40
2018-01-19T00:34:43.124Z,5.40
2018-01-19T00:37:11.417Z,5.40
2018-01-19T00:39:40.438Z,5.40
2018-01-19T00:42:08.737Z,5.40
2018-01-19T00:44:37.039Z,5.40
2018-01-19T00:47:05.306Z,5.40
2018-01-19T00:49:33.602Z,5.40
2018-01-19T00:52:01.869Z,5.30
2018-01-19T00:54:30.473Z,5.30
2018-01-19T00:56:58.750Z,5.20
2018-01-19T00:59:27.128Z,5.20
2018-01-19T01:01:55.409Z,5.10
2018-01-19T01:04:23.692Z,5.00
2018-01-19T01:06:51.977Z,5.00
2018-01-19T01:09:20.248Z,4.90
2018-01-19T01:11:48.545Z,4.90
2018-01-19T01:14:17.578Z,4.90
2018-01-19T01:16:45.840Z,4.90
2018-01-19T01:19:14.138Z,5.00
2018-01-19T01:21:42.409Z,5.00
2018-01-19T01:24:10.713Z,5.10
2018-01-19T01:26:38.986Z,5.10
2018-01-19T01:29:07.280Z,5.20
2018-01-19T01:31:35.556Z,5.20
2018-01-19T01:34:03.851Z,5.20
2018-01-19T01:36:32.125Z,5.20
2018-01-19T01:39:00.395Z,5.30
2018-01-19T01:41:28.714Z,5.30
2018-01-19T01:43:56.993Z,5.30
2018-01-19T01:46:25.276Z,5.40
2018-01-19T01:49:06.113Z,5.40
2018-01-19T01:51:35.168Z,5.40
2018-01-19T01:54:03.445Z,5.40
2018-01-19T01:56:31.737Z,5.40
2018-01-19T01:58:59.995Z,5.50
2018-01-19T02:01:28.280Z,5.50
2018-01-19T02:03:56.579Z,5.50
2018-01-19T02:06:24.839Z,5.50
2018-01-19T02:08:53.135Z,5.50
2018-01-19T02:11:21.401Z,5.60
2018-01-19T02:13:49.664Z,5.60
2018-01-19T02:16:17.961Z,5.60
2018-01-19T02:18:46.309Z,5.60
2018-01-19T02:21:14.579Z,5.60
2018-01-19T02:23:42.826Z,5.60
2018-01-19T02:26:11.941Z,5.70
2018-01-19T02:28:40.978Z,5.70
2018-01-19T02:31:09.265Z,5.70
2018-01-19T02:33:37.520Z,5.70
2018-01-19T02:36:05.797Z,5.70
2018-01-19T02:38:34.109Z,5.70
2018-01-19T02:41:02.385Z,5.70
2018-01-19T02:43:31.443Z,5.70
2018-01-19T02:45:59.723Z,5.70
2018-01-19T02:48:28.045Z,5.80
2018-01-19T02:50:56.304Z,5.80
2018-01-19T02:53:24.594Z,5.80
2018-01-19T02:55:52.876Z,5.90
2018-01-19T02:58:21.157Z,5.90
2018-01-19T03:00:50.225Z,5.90
2018-01-19T03:03:18.488Z,5.90
2018-01-19T03:05:46.789Z,6.00
2018-01-19T03:08:15.042Z,5.90
2018-01-19T03:10:43.343Z,6.00
2018-01-19T03:13:11.605Z,6.00
2018-01-19T03:15:39.874Z,6.00
2018-01-19T03:18:08.173Z,6.00
2018-01-19T03:20:36.434Z,6.00
2018-01-19T03:23:04.716Z,6.10
2018-01-19T03:25:32.984Z,6.00
2018-01-19T03:28:01.273Z,6.10
2018-01-19T03:30:29.576Z,6.10
2018-01-19T03:32:58.255Z,6.20
2018-01-19T03:35:26.533Z,6.10
2018-01-19T03:37:54.814Z,6.20
2018-01-19T03:40:23.122Z,6.10
2018-01-19T03:42:52.162Z,6.20
2018-01-19T03:45:20.462Z,6.20
2018-01-19T03:47:48.739Z,6.20
2018-01-19T03:50:17.421Z,6.20
2018-01-19T03:52:46.854Z,6.20
2018-01-19T03:55:15.107Z,6.20
2018-01-19T03:57:43.381Z,6.20
2018-01-19T04:00:11.665Z,6.20
2018-01-19T04:02:39.984Z,6.20
2018-01-19T04:05:08.231Z,6.20
2018-01-19T04:07:36.896Z,6.20
2018-01-19T04:10:05.159Z,6.10
2018-01-19T04:12:33.434Z,6.10
2018-01-19T04:15:01.721Z,6.10
2018-01-19T04:17:29.979Z,6.10
2018-01-19T04:19:58.278Z,6.10
2018-01-19T04:22:26.548Z,6.00
2018-01-19T04:24:54.850Z,6.00
2018-01-19T04:27:23.127Z,6.00
2018-01-19T04:29:51.401Z,6.00
2018-01-19T04:32:19.702Z,6.00
2018-01-19T04:34:48.729Z,6.00
2018-01-19T04:37:17.015Z,6.00
2018-01-19T04:39:45.297Z,6.00
2018-01-19T04:42:13.634Z,6.00
2018-01-19T04:44:42.680Z,6.00
2018-01-19T04:47:11.379Z,5.90
2018-01-19T04:49:39.661Z,5.90
2018-01-19T04:52:07.917Z,5.90
2018-01-19T04:54:36.253Z,5.90
2018-01-19T04:57:05.284Z,5.90
2018-01-19T04:59:34.361Z,5.90
2018-01-19T05:02:02.641Z,5.90
2018-01-19T05:04:31.301Z,5.90
2018-01-19T05:06:59.663Z,5.90
2018-01-19T05:09:28.040Z,5.90
2018-01-19T05:11:56.336Z,5.90
2018-01-19T05:14:24.590Z,5.80
2018-01-19T05:16:52.873Z,5.80
2018-01-19T05:19:21.145Z,5.90
2018-01-19T05:21:49.795Z,5.80
2018-01-19T05:24:18.072Z,5.80
2018-01-19T05:26:47.096Z,5.80
2018-01-19T05:29:15.382Z,5.80
2018-01-19T05:31:43.636Z,5.80
2018-01-19T05:34:11.917Z,5.80
2018-01-19T05:36:40.191Z,5.80
2018-01-19T05:39:08.510Z,5.80
2018-01-19T05:41:36.788Z,5.90
2018-01-19T05:44:05.063Z,5.80
2018-01-19T05:46:33.356Z,5.90
2018-01-19T05:49:02.369Z,5.90
2018-01-19T05:51:30.652Z,5.90
2018-01-19T05:53:58.920Z,5.90
2018-01-19T05:56:28.008Z,5.90
2018-01-19T05:58:56.267Z,5.90
2018-01-19T06:01:25.996Z,5.90
2018-01-19T06:03:55.018Z,5.80
2018-01-19T06:06:23.317Z,5.80
2018-01-19T06:08:51.585Z,5.80
2018-01-19T06:11:19.879Z,5.80
2018-01-19T06:13:48.171Z,5.80
2018-01-19T06:16:16.441Z,5.80
2018-01-19T06:18:44.746Z,5.90
2018-01-19T06:21:13.773Z,5.90
2018-01-19T06:23:42.513Z,5.90
2018-01-19T06:26:10.759Z,5.90
2018-01-19T06:28:39.052Z,5.90
2018-01-19T06:31:07.352Z,5.90
2018-01-19T06:33:35.619Z,5.90
2018-01-19T06:36:03.905Z,5.80
2018-01-19T06:38:32.169Z,5.80
2018-01-19T06:41:00.477Z,5.80
2018-01-19T06:43:29.503Z,5.80
2018-01-19T06:45:57.817Z,5.80
2018-01-19T06:48:26.084Z,5.80
2018-01-19T06:50:54.340Z,5.90
2018-01-19T06:53:22.637Z,5.90
2018-01-19T06:55:51.716Z,5.90
2018-01-19T06:58:20.014Z,5.90
2018-01-19T07:00:48.374Z,5.90
2018-01-19T07:03:16.686Z,5.90
2018-01-19T07:05:44.977Z,5.90
2018-01-19T07:08:13.278Z,5.90
2018-01-19T07:10:41.576Z,5.90
2018-01-19T07:13:09.922Z,5.90
2018-01-19T07:15:38.193Z,5.90
2018-01-19T07:18:06.457Z,5.90
2018-01-19T07:20:34.744Z,5.90
2018-01-19T07:23:03.033Z,5.90
2018-01-19T07:25:32.095Z,5.80
2018-01-19T07:28:00.365Z,5.80
2018-01-19T07:30:34.911Z,5.80
2018-01-19T07:33:10.841Z,5.90
2018-01-19T07:35:41.449Z,5.90
2018-01-19T07:38:09.692Z,5.90
2018-01-19T07:40:38.748Z,5.90
2018-01-19T07:43:07.045Z,5.80
2018-01-19T07:45:35.323Z,5.90
2018-01-19T07:48:03.628Z,5.90
2018-01-19T07:50:32.647Z,5.90
2018-01-19T07:53:01.337Z,5.80
2018-01-19T07:55:29.641Z,5.80
2018-01-19T07:57:57.904Z,5.80
2018-01-19T08:00:26.209Z,5.80
2018-01-19T08:02:54.489Z,5.80
2018-01-19T08:07:55.382Z,5.80
2018-01-19T08:10:23.785Z,5.90
2018-01-19T08:12:52.247Z,5.90
2018-01-19T08:15:21.322Z,5.90
2018-01-19T08:17:50.969Z,6.00
2018-01-19T08:20:19.467Z,6.00
2018-01-19T08:22:48.544Z,6.10
2018-01-19T08:25:16.841Z,6.10
2018-01-19T08:27:45.256Z,6.10
2018-01-19T08:30:14.111Z,6.10
2018-01-19T08:32:42.709Z,6.10
2018-01-19T08:35:11.153Z,6.20
2018-01-19T08:37:39.561Z,6.20
2018-01-19T08:40:08.253Z,6.20
2018-01-19T08:42:36.697Z,6.30
2018-01-19T08:45:06.039Z,6.40
2018-01-19T08:47:34.455Z,6.30
2018-01-19T08:50:02.723Z,6.40
2018-01-19T08:52:31.006Z,6.40
2018-01-19T08:54:59.268Z,6.40
2018-01-19T08:57:27.563Z,6.40
2018-01-19T08:59:55.829Z,6.50
2018-01-19T09:02:24.132Z,6.50
2018-01-19T09:04:52.395Z,6.60
2018-01-19T09:07:20.702Z,6.60
2018-01-19T09:09:48.973Z,6.70
2018-01-19T09:12:17.258Z,6.80
2018-01-19T09:14:46.311Z,6.90
2018-01-19T09:17:14.591Z,6.90
2018-01-19T09:19:42.873Z,7.00
2018-01-19T09:22:11.144Z,7.00
2018-01-19T09:24:39.421Z,7.10
2018-01-19T09:27:07.684Z,7.10
2018-01-19T09:29:36.344Z,7.20
2018-01-19T09:32:04.618Z,7.20
2018-01-19T09:34:32.912Z,7.20
2018-01-19T09:37:01.201Z,7.30
2018-01-19T09:39:29.479Z,7.30
2018-01-19T09:41:57.767Z,7.30
2018-01-19T09:44:26.092Z,7.30
2018-01-19T09:46:54.417Z,7.40
2018-01-19T09:49:22.696Z,7.40
2018-01-19T09:51:50.996Z,7.50
2018-01-19T09:54:19.286Z,7.50
2018-01-19T09:56:48.235Z,7.60
2018-01-19T09:59:16.561Z,7.60
2018-01-19T10:01:44.856Z,7.60
2018-01-19T10:04:13.163Z,7.70
2018-01-19T10:06:41.428Z,7.70
2018-01-19T10:09:09.688Z,7.70
2018-01-19T10:11:38.753Z,7.90
2018-01-19T10:14:07.426Z,7.90
2018-01-19T10:16:35.703Z,8.00
2018-01-19T10:19:03.975Z,8.00
2018-01-19T10:21:32.228Z,8.10
2018-01-19T10:24:00.541Z,8.00
2018-01-19T10:26:28.813Z,8.10
2018-01-19T10:28:57.107Z,8.00
2018-01-19T10:31:25.376Z,8.10
2018-01-19T10:33:54.059Z,8.10
2018-01-19T10:36:22.449Z,8.20
2018-01-19T10:38:51.352Z,8.20
2018-01-19T10:41:19.758Z,8.30
2018-01-19T10:43:48.767Z,8.40
2018-01-19T10:46:17.062Z,8.30
2018-01-19T10:48:46.191Z,8.30
2018-01-19T10:51:14.509Z,8.30
2018-01-19T10:53:43.557Z,8.40
2018-01-19T10:56:11.825Z,8.40
2018-01-19T10:58:40.101Z,8.40
2018-01-19T11:01:08.386Z,8.50
2018-01-19T11:03:36.685Z,8.50
2018-01-19T11:06:04.955Z,8.50
2018-01-19T11:08:34.110Z,8.60
2018-01-19T11:11:02.386Z,8.60
2018-01-19T11:13:30.709Z,8.70
2018-01-19T11:15:58.996Z,8.80
2018-01-19T11:18:27.273Z,8.80
2018-01-19T11:20:56.341Z,9.00
2018-01-19T11:23:24.620Z,9.00
2018-01-19T11:25:52.956Z,9.10
2018-01-19T11:28:21.224Z,9.30
2018-01-19T11:30:49.526Z,9.40
2018-01-19T11:33:17.807Z,9.40
2018-01-19T11:35:46.092Z,9.40
2018-01-19T11:38:14.398Z,9.50
2018-01-19T11:40:42.711Z,9.50
2018-01-19T11:43:11.068Z,9.50
2018-01-19T11:45:39.334Z,9.50
2018-01-19T11:48:07.605Z,9.50
2018-01-19T11:50:35.960Z,9.50
2018-01-19T11:53:04.233Z,9.60
2018-01-19T11:55:33.320Z,9.50
2018-01-19T11:58:01.616Z,9.50
2018-01-19T12:00:29.907Z,9.40
2018-01-19T12:02:58.221Z,9.30
2018-01-19T12:05:26.535Z,9.20
2018-01-19T12:07:55.834Z,9.20
2018-01-19T12:10:24.146Z,9.10
2018-01-19T12:12:52.502Z,9.00
2018-01-19T12:15:20.773Z,9.00
2018-01-19T12:17:49.038Z,8.90
2018-01-19T12:20:17.364Z,8.80
2018-01-19T12:22:45.619Z,8.80
2018-01-19T12:25:13.934Z,8.70
2018-01-19T12:27:42.264Z,8.80
2018-01-19T12:30:10.666Z,8.80
2018-01-19T12:32:38.937Z,8.80
2018-01-19T12:35:07.230Z,8.80
2018-01-19T12:37:35.507Z,8.70
2018-01-19T12:40:03.798Z,8.60
2018-01-19T12:42:32.105Z,8.50
2018-01-19T12:45:01.142Z,8.50
2018-01-19T12:47:29.469Z,8.40
2018-01-19T12:49:58.509Z,8.40
2018-01-19T12:52:26.834Z,8.40
2018-01-19T12:54:55.107Z,8.40
2018-01-19T12:57:23.448Z,8.40
2018-01-19T12:59:51.818Z,8.30
2018-01-19T13:02:20.092Z,8.30
2018-01-19T13:04:48.537Z,8.40
2018-01-19T13:07:16.873Z,8.40
2018-01-19T13:09:45.126Z,8.50
2018-01-19T13:12:13.516Z,8.60
2018-01-19T13:14:41.810Z,8.70
2018-01-19T13:17:10.248Z,9.10
2018-01-19T13:19:38.574Z,9.50
2018-01-19T13:22:06.937Z,10.30
2018-01-19T13:24:35.196Z,10.50
2018-01-19T13:27:03.510Z,10.60
2018-01-19T13:29:31.786Z,10.50
2018-01-19T13:32:00.081Z,10.40
2018-01-19T13:34:28.527Z,10.30
2018-01-19T13:36:56.919Z,10.10
2018-01-19T13:39:25.264Z,9.90
2018-01-19T13:41:53.541Z,9.80
2018-01-19T13:44:22.085Z,9.60
2018-01-19T13:46:50.464Z,9.50
2018-01-19T13:49:19.870Z,9.30
2018-01-19T13:51:48.219Z,9.30
2018-01-19T13:54:16.501Z,9.20
2018-01-19T13:56:44.807Z,9.10
2018-01-19T13:59:13.406Z,8.90
2018-01-19T14:01:42.748Z,8.80
2018-01-19T14:04:12.614Z,8.50
2018-01-19T14:06:40.957Z,8.50
2018-01-19T14:09:09.267Z,8.40
2018-01-19T14:11:37.629Z,8.30
2018-01-19T14:14:05.976Z,8.10
2018-01-19T14:16:34.257Z,7.90
2018-01-19T14:19:05.332Z,7.80
2018-01-19T14:21:34.178Z,7.60
2018-01-19T14:24:02.620Z,7.50
2018-01-19T14:26:31.003Z,7.50
2018-01-19T14:28:59.361Z,7.40
2018-01-19T14:31:27.611Z,7.40
2018-01-19T14:33:55.909Z,7.30
2018-01-19T14:36:24.185Z,7.30
2018-01-19T14:38:52.461Z,7.30
2018-01-19T14:41:20.774Z,7.20
2018-01-19T14:43:49.042Z,7.20
2018-01-19T14:46:17.337Z,7.10
2018-01-19T14:48:46.383Z,7.00
2018-01-19T14:51:14.720Z,6.90
2018-01-19T14:53:43.765Z,6.90
2018-01-19T14:56:12.068Z,6.80
2018-01-19T14:58:40.365Z,6.80
2018-01-19T15:01:08.633Z,6.80
2018-01-19T15:03:36.988Z,6.70
2018-01-19T15:06:05.244Z,6.60
2018-01-19T15:08:33.561Z,6.50
2018-01-19T15:11:01.855Z,6.40
2018-01-19T15:13:30.893Z,6.40
2018-01-19T15:15:59.204Z,6.30
2018-01-19T15:18:27.462Z,6.30
2018-01-19T15:20:55.758Z,6.20
2018-01-19T15:23:24.031Z,6.10
2018-01-19T15:25:52.352Z,6.10
2018-01-19T15:28:21.383Z,6.00
2018-01-19T15:30:49.716Z,6.00
2018-01-19T15:33:19.603Z,6.00
2018-01-19T15:35:47.903Z,6.00
2018-01-19T15:38:16.624Z,6.00
2018-01-19T15:40:44.972Z,6.00
2018-01-19T15:43:14.043Z,5.80
2018-01-19T15:45:42.404Z,5.60
2018-01-19T15:48:10.990Z,5.70
2018-01-19T15:50:39.280Z,5.60
2018-01-19T15:53:07.571Z,5.60
2018-01-19T15:55:35.927Z,5.50
2018-01-19T15:58:04.226Z,5.40
2018-01-19T16:00:33.218Z,5.30
2018-01-19T16:03:01.561Z,5.30
2018-01-19T16:05:33.122Z,5.20
2018-01-19T16:08:01.820Z,5.20
2018-01-19T16:10:36.259Z,5.10
2018-01-19T16:13:05.706Z,5.10
2018-01-19T16:15:41.337Z,5.00
2018-01-19T16:18:11.157Z,5.00
2018-01-19T16:20:40.195Z,4.90
2018-01-19T16:23:08.703Z,4.80
2018-01-19T16:25:37.305Z,4.80
2018-01-19T16:28:05.893Z,4.70
2018-01-19T16:30:34.191Z,4.70
2018-01-19T16:33:02.487Z,4.70
2018-01-19T16:35:30.850Z,4.70
2018-01-19T16:37:59.180Z,4.70
2018-01-19T16:40:27.549Z,4.60
2018-01-19T16:42:55.873Z,4.60
2018-01-19T16:45:24.904Z,4.60
2018-01-19T16:47:53.192Z,4.60
2018-01-19T16:50:21.797Z,4.60
2018-01-19T16:52:50.130Z,4.60
2018-01-19T16:55:19.248Z,4.60
2018-01-19T16:57:47.571Z,4.60
2018-01-19T17:00:15.855Z,4.70
2018-01-19T17:02:44.498Z,4.70
2018-01-19T17:05:12.766Z,4.70
2018-01-19T17:07:41.033Z,4.70
2018-01-19T17:10:09.346Z,4.70
2018-01-19T17:12:37.643Z,4.70
2018-01-19T17:15:06.229Z,4.70
2018-01-19T17:17:34.517Z,4.70
2018-01-19T17:20:02.797Z,4.70
2018-01-19T17:22:31.133Z,4.70
2018-01-19T17:24:59.445Z,4.70
2018-01-19T17:27:27.780Z,4.70
2018-01-19T17:29:56.062Z,4.70
2018-01-19T17:32:25.550Z,4.70
2018-01-19T17:34:53.884Z,4.70
2018-01-19T17:37:22.163Z,4.70
2018-01-19T17:39:50.491Z,4.70
2018-01-19T17:42:18.753Z,4.70
2018-01-19T17:44:47.093Z,4.70
2018-01-19T17:47:15.372Z,4.70
2018-01-19T17:49:43.649Z,4.80
2018-01-19T17:52:11.959Z,4.80
2018-01-19T17:54:41.005Z,4.80
2018-01-19T17:57:09.328Z,4.80
2018-01-19T17:59:38.394Z,4.90
2018-01-19T18:02:06.758Z,4.90
2018-01-19T18:04:35.037Z,4.90
2018-01-19T18:07:03.640Z,5.00
2018-01-19T18:09:31.920Z,5.00
2018-01-19T18:12:00.221Z,5.00
2018-01-19T18:14:29.313Z,5.10
2018-01-19T18:16:58.390Z,5.10
2018-01-19T18:19:27.507Z,5.10
2018-01-19T18:21:55.848Z,5.10
2018-01-19T18:24:24.252Z,5.10
2018-01-19T18:26:52.611Z,5.10
2018-01-19T18:29:21.249Z,5.10
2018-01-19T18:31:49.550Z,5.10
2018-01-19T18:34:17.878Z,5.10
2018-01-19T18:36:46.226Z,5.10
2018-01-19T18:39:14.550Z,5.10
2018-01-19T18:41:42.831Z,5.10
2018-01-19T18:44:11.940Z,5.10
2018-01-19T18:46:40.602Z,5.10
2018-01-19T18:49:08.918Z,5.10
2018-01-19T18:51:40.148Z,5.10
2018-01-19T18:54:08.491Z,5.10
2018-01-19T18:56:38.391Z,5.10
2018-01-19T18:59:08.166Z,5.10
2018-01-19T19:01:36.517Z,5.20
2018-01-19T19:04:05.747Z,5.10
2018-01-19T19:06:34.440Z,5.10
2018-01-19T19:09:02.794Z,5.00
2018-01-19T19:11:31.995Z,4.80
2018-01-19T19:14:00.323Z,4.80
2018-01-19T19:16:28.690Z,4.80
2018-01-19T19:18:56.976Z,4.70
2018-01-19T19:21:25.326Z,4.70
2018-01-19T19:23:54.376Z,4.60
2018-01-19T19:26:22.757Z,4.60
2018-01-19T19:28:51.091Z,4.60
2018-01-19T19:31:19.428Z,4.60
2018-01-19T19:33:47.776Z,4.60
2018-01-19T19:36:16.166Z,4.60
2018-01-19T19:38:44.480Z,4.60
2018-01-19T19:41:13.582Z,4.60
2018-01-19T19:43:41.890Z,4.60
2018-01-19T19:46:10.265Z,4.60
2018-01-19T19:48:38.587Z,4.60
2018-01-19T19:51:07.257Z,4.60
2018-01-19T19:53:35.710Z,4.60
2018-01-19T19:56:04.791Z,4.60
2018-01-19T19:58:33.115Z,4.60
2018-01-19T20:01:01.424Z,4.60
2018-01-19T20:03:29.889Z,4.60
2018-01-19T20:05:58.228Z,4.70
2018-01-19T20:08:26.719Z,4.70
2018-01-19T20:10:55.039Z,4.70
2018-01-19T20:13:23.347Z,4.80
2018-01-19T20:15:51.706Z,4.90
2018-01-19T20:18:20.831Z,4.90
2018-01-19T20:20:49.896Z,5.00
2018-01-19T20:23:18.334Z,5.00
2018-01-19T20:25:46.780Z,5.00
2018-01-19T20:28:15.933Z,5.10
2018-01-19T20:30:44.474Z,5.10
2018-01-19T20:33:12.852Z,5.10
2018-01-19T20:35:41.337Z,5.20
2018-01-19T20:38:09.660Z,5.10
2018-01-19T20:40:38.406Z,5.10
2018-01-19T20:43:06.713Z,5.00
2018-01-19T20:45:35.115Z,5.00
2018-01-19T20:48:03.546Z,4.90
2018-01-19T20:50:31.951Z,4.80
2018-01-19T20:53:00.294Z,4.70
2018-01-19T20:55:28.989Z,4.60
2018-01-19T20:57:57.428Z,4.60
2018-01-19T21:00:26.705Z,4.50
2018-01-19T21:02:55.164Z,4.50
2018-01-19T21:05:23.718Z,4.50
2018-01-19T21:07:52.044Z,4.50
2018-01-19T21:10:20.531Z,4.40
2018-01-19T21:12:48.994Z,4.40
2018-01-19T21:15:17.420Z,4.40
2018-01-19T21:17:46.665Z,4.30
2018-01-19T21:20:15.349Z,4.30
2018-01-19T21:22:43.657Z,4.30
2018-01-19T21:25:11.931Z,4.30
2018-01-19T21:27:40.594Z,4.30
2018-01-19T21:30:08.887Z,4.20
2018-01-19T21:32:37.215Z,4.20
2018-01-19T21:35:06.381Z,4.20
2018-01-19T21:37:34.768Z,4.10
2018-01-19T21:40:03.109Z,4.20
2018-01-19T21:42:31.507Z,4.10
2018-01-19T21:44:59.920Z,4.10
2018-01-19T21:47:28.233Z,4.00
2018-01-19T21:49:56.569Z,4.00
2018-01-19T21:52:24.938Z,4.00
2018-01-19T21:54:53.491Z,4.00
2018-01-19T21:57:21.813Z,3.90
2018-01-19T21:59:50.121Z,3.90
2018-01-19T22:02:18.558Z,3.90
2018-01-19T22:04:47.028Z,3.90
2018-01-19T22:07:15.326Z,3.90
2018-01-19T22:09:43.651Z,3.80
2018-01-19T22:12:12.038Z,3.80
2018-01-19T22:14:40.317Z,3.80
2018-01-19T22:17:08.681Z,3.80
2018-01-19T22:19:37.042Z,3.80
2018-01-19T22:22:06.106Z,3.90
2018-01-19T22:24:34.434Z,3.90
2018-01-19T22:27:02.766Z,3.90
2018-01-19T22:29:31.073Z,4.00
2018-01-19T22:32:00.134Z,4.10
2018-01-19T22:34:28.501Z,4.10
2018-01-19T22:36:56.785Z,4.10
2018-01-19T22:39:25.154Z,4.10
2018-01-19T22:41:53.465Z,4.20
2018-01-19T22:44:21.783Z,4.20
2018-01-19T22:46:50.843Z,4.10
2018-01-19T22:49:19.171Z,4.10
2018-01-19T22:51:47.483Z,4.10
2018-01-19T22:54:15.802Z,4.10
2018-01-19T22:56:44.114Z,4.00
2018-01-19T22:59:12.410Z,4.00
2018-01-19T23:01:41.643Z,3.90
2018-01-19T23:04:09.918Z,3.90
2018-01-19T23:06:38.282Z,3.90
2018-01-19T23:09:06.606Z,3.90
2018-01-19T23:11:35.689Z,3.80
2018-01-19T23:14:04.798Z,3.70
2018-01-19T23:16:33.878Z,3.70
2018-01-19T23:19:03.009Z,3.60
2018-01-19T23:21:31.312Z,3.70
2018-01-19T23:23:59.633Z,3.60
2018-01-19T23:26:28.691Z,3.60
2018-01-19T23:28:56.981Z,3.50
2018-01-19T23:31:25.284Z,3.50
2018-01-19T23:33:54.368Z,3.90
2018-01-19T23:36:22.701Z,3.50
2018-01-19T23:38:50.974Z,3.50
2018-01-19T23:41:20.371Z,3.60
2018-01-19T23:43:48.662Z,3.60
2018-01-19T23:46:17.483Z,3.60
2018-01-19T23:48:45.792Z,3.60
2018-01-19T23:51:14.106Z,3.70
2018-01-19T23:53:42.394Z,3.70
2018-01-19T23:56:10.660Z,3.70
2018-01-19T23:58:39.728Z,3.70
